Time;durP1;ratioP1;P1;durP2;ratioP2;P2;SDS_P1;SDS_P2;PMS_P1;PMS_P2;Temp;Humidity;BMP_temperature;BMP_pressure;BME280_temperature;BME280_humidity;BME280_pressure;Samples;Min_cycle;Max_cycle;Signal;HPM_P1;HPM_P2
2023/01/29 07:35:05;;;;;;;1.47;1.37;;;2.50;99.90;4.20;102658.00;;;;6337150;22;20210;-66
2023/01/29 07:37:33;;;;;;;1.33;1.30;;;2.60;99.90;4.10;102656.00;;;;6272797;22;1368403;-66
2023/01/29 07:39:59;;;;;;;0.30;0.30;;;2.50;99.90;4.20;102657.00;;;;6277443;22;20465;-66
2023/01/29 07:42:28;;;;;;;2.10;1.80;;;2.50;99.90;4.20;102665.00;;;;6302671;22;20191;-66
2023/01/29 07:44:54;;;;;;;2.80;2.53;;;2.50;99.90;4.40;102675.00;;;;6277040;22;20558;-66
2023/01/29 07:47:20;;;;;;;1.33;1.23;;;2.50;99.90;3.90;102660.00;;;;6277579;22;20137;-65
2023/01/29 07:49:46;;;;;;;2.83;2.07;;;2.50;99.90;4.20;102621.00;;;;6276857;22;20152;-64
2023/01/29 07:52:12;;;;;;;1.37;0.70;;;2.60;99.90;4.00;102657.00;;;;6276602;22;20172;-65
2023/01/29 07:54:37;;;;;;;0.60;0.60;;;2.50;99.90;4.60;102660.00;;;;6276514;22;20187;-65
2023/01/29 07:57:30;;;;;;;1.50;1.40;;;2.60;99.90;4.50;102674.00;;;;6278480;22;20141;-65
2023/01/29 07:59:56;;;;;;;1.13;1.13;;;2.70;99.90;4.40;102606.00;;;;6276626;22;20180;-65
2023/01/29 08:02:25;;;;;;;1.60;1.50;;;2.60;99.90;4.80;102673.00;;;;6278279;22;20141;-65
2023/01/29 08:04:51;;;;;;;0.57;0.57;;;2.80;99.90;4.70;102658.00;;;;6276194;22;20223;-66
2023/01/29 08:07:21;;;;;;;3.80;3.67;;;2.80;99.90;4.50;102652.00;;;;6276221;22;20477;-65
2023/01/29 08:09:46;;;;;;;3.60;1.63;;;2.80;99.90;4.60;102668.00;;;;6277953;22;20206;-66
2023/01/29 08:12:13;;;;;;;1.83;1.83;;;2.80;99.90;4.30;102665.00;;;;6277888;22;20169;-66
2023/01/29 08:14:39;;;;;;;0.93;0.93;;;2.70;99.90;4.80;102660.00;;;;6277493;22;20199;-66
2023/01/29 08:17:05;;;;;;;1.43;1.33;;;2.70;99.90;4.20;102675.00;;;;6277969;22;20149;-65
2023/01/29 08:19:33;;;;;;;2.63;0.50;;;2.70;99.90;4.20;102663.00;;;;6275881;22;20589;-66
2023/01/29 08:22:05;;;;;;;2.83;2.70;;;2.60;99.90;4.00;102657.00;;;;6278218;22;20569;-65
2023/01/29 08:24:33;;;;;;;5.57;3.30;;;2.60;99.90;4.40;102651.00;;;;6276673;22;20148;-65
2023/01/29 08:27:02;;;;;;;0.93;0.93;;;2.60;99.90;4.30;102657.00;;;;6277834;22;20146;-65
2023/01/29 08:29:31;;;;;;;2.50;2.30;;;2.60;99.90;4.20;102656.00;;;;6277356;22;20149;-65
2023/01/29 08:32:03;;;;;;;1.07;0.97;;;2.60;99.90;4.20;102657.00;;;;6275688;22;20214;-65
2023/01/29 08:34:29;;;;;;;0.70;0.70;;;2.60;99.90;4.10;102658.00;;;;6277062;22;20180;-65
2023/01/29 08:36:54;;;;;;;3.03;2.87;;;2.60;99.90;4.30;102642.00;;;;6275125;22;20640;-65
2023/01/29 08:39:23;;;;;;;1.63;1.40;;;2.60;99.90;4.20;102658.00;;;;6277714;22;20149;-65
2023/01/29 08:41:49;;;;;;;2.20;1.17;;;2.60;99.90;4.20;102638.00;;;;6274534;22;20148;-65
2023/01/29 08:44:18;;;;;;;2.97;2.77;;;2.60;99.90;4.50;102650.00;;;;6277095;22;20149;-65
2023/01/29 08:46:45;;;;;;;3.83;3.37;;;2.70;99.90;4.70;102638.00;;;;6277792;22;20141;-65
2023/01/29 08:49:12;;;;;;;5.80;2.47;;;2.80;99.90;4.50;102646.00;;;;6277155;22;20169;-65
2023/01/29 08:51:41;;;;;;;1.93;1.90;;;2.90;99.90;4.50;102642.00;;;;6277652;22;20191;-65
2023/01/29 08:54:07;;;;;;;2.90;2.70;;;2.80;99.90;4.20;102650.00;;;;6275451;22;20153;-65
2023/01/29 08:56:33;;;;;;;5.77;3.10;;;2.80;99.90;4.40;102635.00;;;;6300799;22;20156;-65
2023/01/29 08:58:59;;;;;;;2.13;1.40;;;2.80;99.90;4.70;102578.00;;;;6301177;22;20162;-65
2023/01/29 09:01:30;;;;;;;0.67;0.67;;;2.80;99.90;4.40;102576.00;;;;6276188;22;20152;-65
2023/01/29 09:04:19;;;;;;;0.30;0.30;;;2.90;99.90;4.50;102647.00;;;;6274653;22;20160;-65
2023/01/29 09:06:45;;;;;;;0.67;0.67;;;2.90;99.90;4.30;102641.00;;;;6276562;22;20160;-65
2023/01/29 09:09:17;;;;;;;3.47;3.20;;;2.80;99.90;4.70;102632.00;;;;6276757;22;20145;-65
2023/01/29 09:11:54;;;;;;;4.07;1.90;;;2.80;99.90;4.30;102641.00;;;;6277364;22;20164;-66
2023/01/29 09:14:20;;;;;;;5.87;2.70;;;2.90;99.90;4.80;102639.00;;;;6277065;22;20141;-66
2023/01/29 09:16:49;;;;;;;1.90;1.53;;;3.00;99.90;5.40;102639.00;;;;6277083;22;20236;-66
2023/01/29 09:19:35;;;;;;;0.30;0.30;;;3.20;99.90;4.90;102633.00;;;;6277726;22;20154;-66
2023/01/29 09:22:01;;;;;;;0.40;0.40;;;3.10;99.90;4.80;102632.00;;;;6274661;22;20160;-66
2023/01/29 09:24:31;;;;;;;1.80;1.07;;;3.10;99.90;5.10;102561.00;;;;6275561;22;20152;-65
2023/01/29 09:27:05;;;;;;;3.80;3.50;;;3.20;99.90;5.20;102624.00;;;;6301366;22;20157;-65
2023/01/29 09:29:34;;;;;;;1.63;1.53;;;3.20;99.90;4.90;102630.00;;;;6275060;22;20164;-66
2023/01/29 09:32:03;;;;;;;1.97;1.70;;;3.10;99.90;4.90;102638.00;;;;6277272;22;20168;-65
2023/01/29 09:34:28;;;;;;;2.40;2.13;;;3.10;99.90;4.90;102626.00;;;;6276928;22;20219;-65
2023/01/29 09:37:06;;;;;;;1.70;1.70;;;3.20;99.90;5.30;102635.00;;;;6275810;22;20168;-65
2023/01/29 09:39:41;;;;;;;2.10;1.47;;;3.30;99.90;4.70;102632.00;;;;6249293;22;20152;-65
2023/01/29 09:42:48;;;;;;;3.13;2.53;;;3.10;99.90;4.60;102633.00;;;;6249403;22;20286;-66
2023/01/29 09:45:34;;;;;;;0.60;0.60;;;3.20;99.90;4.70;102620.00;;;;6234971;22;20235;-65
2023/01/29 09:48:24;;;;;;;6.57;2.30;;;3.10;99.90;4.40;102629.00;;;;6249757;22;20164;-65
2023/01/29 09:50:57;;;;;;;0.20;0.20;;;3.00;99.90;4.70;102571.00;;;;6244493;22;20144;-65
2023/01/29 09:57:38;;;;;;;3.60;2.93;;;3.10;99.90;4.80;102605.00;;;;6248150;22;20176;-65
2023/01/29 10:00:17;;;;;;;2.63;2.47;;;3.20;99.90;4.90;102638.00;;;;6249032;22;20237;-66
2023/01/29 10:03:19;;;;;;;3.93;2.53;;;3.30;99.90;5.10;102624.00;;;;6248942;22;20159;-66
2023/01/29 10:06:03;;;;;;;4.57;3.63;;;3.20;99.90;4.70;102590.00;;;;6273698;22;20175;-65
2023/01/29 10:09:26;;;;;;;2.60;2.43;;;3.20;99.90;5.30;102633.00;;;;6276482;22;20650;-65
2023/01/29 10:12:22;;;;;;;0.63;0.63;;;3.30;99.90;5.20;102574.00;;;;6182751;23;20143;-65
2023/01/29 10:15:16;;;;;;;2.97;1.97;;;3.30;99.90;4.70;102594.00;;;;6276367;22;20153;-65
2023/01/29 10:18:22;;;;;;;2.37;1.70;;;3.30;99.90;5.20;102626.00;;;;6276503;22;20137;-65
2023/01/29 10:34:03;;;;;;;1.30;1.30;;;2.90;99.90;4.60;102550.00;;;;5069450;28;20543;-63
2023/01/29 10:36:43;;;;;;;3.13;2.83;;;3.10;99.90;5.10;102566.00;;;;5014941;28;20564;-64
2023/01/29 10:39:20;;;;;;;1.33;1.33;;;3.50;99.90;5.10;102590.00;;;;5049915;28;20419;-64
2023/01/29 10:42:18;;;;;;;0.63;0.63;;;3.60;99.90;5.30;102545.00;;;;5048865;28;20625;-63
2023/01/29 10:44:47;;;;;;;0.83;0.83;;;3.70;99.90;5.50;102599.00;;;;5040785;28;20237;-64
2023/01/29 10:47:29;;;;;;;6.70;3.90;;;3.90;99.90;5.60;102603.00;;;;5050351;28;20166;-64
2023/01/29 10:50:41;;;;;;;0.20;0.20;;;3.90;99.90;6.60;102584.00;;;;5042425;28;20179;-64
2023/01/29 10:53:22;;;;;;;1.83;1.73;;;4.20;99.90;6.10;102607.00;;;;5046256;28;20235;-64
2023/01/29 10:56:25;;;;;;;0.87;0.87;;;4.30;99.90;6.60;102609.00;;;;5049238;28;20662;-64
2023/01/29 10:59:04;;;;;;;2.63;2.43;;;4.50;99.90;6.00;102592.00;;;;5025240;28;20273;-64
2023/01/29 11:01:36;;;;;;;3.93;3.50;;;4.50;99.90;6.00;102575.00;;;;5036916;28;20187;-64
2023/01/29 11:04:05;;;;;;;2.40;1.97;;;4.40;99.90;5.50;102572.00;;;;5047448;28;20189;-65
2023/01/29 11:06:36;;;;;;;9.33;8.43;;;4.30;99.90;5.70;102563.00;;;;5045948;28;20198;-65
2023/01/29 11:09:31;;;;;;;1.60;1.50;;;4.30;99.90;6.30;102555.00;;;;5047406;28;20171;-65
2023/01/29 11:12:15;;;;;;;3.10;2.67;;;4.40;99.90;5.80;102538.00;;;;5052575;28;20207;-67
2023/01/29 11:15:27;;;;;;;3.13;2.87;;;4.40;99.90;6.10;102536.00;;;;5049653;28;20242;-65
2023/01/29 11:18:14;;;;;;;1.77;1.70;;;4.50;99.90;6.10;102526.00;;;;5049607;28;20272;-65
2023/01/29 11:21:06;;;;;;;6.67;3.40;;;4.60;99.90;5.80;102461.00;;;;5045490;28;20641;-65
2023/01/29 11:24:32;;;;;;;2.03;1.93;;;4.50;99.90;5.90;102503.00;;;;5044922;28;20209;-65
2023/01/29 11:27:22;;;;;;;0.80;0.80;;;4.50;99.90;5.90;102509.00;;;;5044072;28;20210;-65
2023/01/29 11:30:09;;;;;;;3.83;2.17;;;4.50;99.90;5.90;102474.00;;;;5047153;28;20190;-65
2023/01/29 11:33:22;;;;;;;6.17;5.40;;;4.60;99.90;6.40;102515.00;;;;5042592;28;20223;-65
2023/01/29 11:36:14;;;;;;;2.67;2.47;;;4.80;99.90;7.00;102521.00;;;;5047694;28;20189;-65
2023/01/29 11:39:15;;;;;;;3.60;3.23;;;5.00;99.90;6.80;102515.00;;;;5047089;28;20207;-65
2023/01/29 11:42:33;;;;;;;0.87;0.87;;;5.30;99.90;8.70;102526.00;;;;5048195;28;20185;-65
2023/01/29 11:45:22;;;;;;;0.10;0.10;;;6.00;99.90;8.90;102522.00;;;;5015033;28;20175;-65
2023/01/29 11:47:55;;;;;;;1.63;1.53;;;6.30;99.90;9.00;102527.00;;;;5034491;28;20218;-60
2023/01/29 11:50:33;;;;;;;1.40;0.93;;;6.60;99.90;8.20;102519.00;;;;5051005;28;20642;-65
2023/01/29 11:53:00;;;;;;;2.13;2.00;;;6.20;99.90;8.60;102515.00;;;;5019455;28;20212;-66
2023/01/29 11:55:37;;;;;;;2.73;2.60;;;6.40;99.90;8.60;102520.00;;;;5031940;28;20181;-66
2023/01/29 11:58:13;;;;;;;0.27;0.27;;;6.30;99.90;8.60;102510.00;;;;5006818;28;20237;-66
2023/01/29 12:00:40;;;;;;;1.57;1.47;;;6.40;99.90;8.30;102455.00;;;;5018217;28;20351;-66
2023/01/29 12:03:21;;;;;;;3.30;3.17;;;6.30;99.90;8.10;102497.00;;;;5033696;28;20208;-66
2023/01/29 12:06:03;;;;;;;0.60;0.60;;;6.30;99.90;7.90;102498.00;;;;5032568;28;20240;-66
2023/01/29 12:09:15;;;;;;;0.97;0.97;;;6.10;99.90;8.00;102474.00;;;;5035229;28;20272;-66
2023/01/29 12:11:41;;;;;;;1.83;1.73;;;6.20;99.90;8.60;102474.00;;;;5059238;28;20675;-66
2023/01/29 12:14:42;;;;;;;2.27;1.80;;;6.40;99.90;7.70;102461.00;;;;5033979;28;20193;-66
2023/01/29 12:17:37;;;;;;;2.33;2.17;;;6.20;99.90;8.00;102473.00;;;;5016492;28;20190;-65
2023/01/29 12:20:16;;;;;;;1.47;1.17;;;6.10;99.90;7.80;102472.00;;;;5033545;28;20206;-65
2023/01/29 12:23:15;;;;;;;3.73;2.73;;;6.10;99.90;7.10;102450.00;;;;5032828;28;20250;-66
2023/01/29 12:25:58;;;;;;;0.83;0.83;;;5.80;99.90;7.20;102459.00;;;;5017490;28;20209;-65
2023/01/29 12:29:08;;;;;;;0.90;0.90;;;5.60;99.90;7.70;102431.00;;;;5030825;28;20727;-66
2023/01/29 12:32:13;;;;;;;2.00;1.80;;;5.80;99.90;8.30;102451.00;;;;5034439;28;20218;-64
2023/01/29 12:34:55;;;;;;;3.33;2.13;;;5.90;99.90;7.60;102450.00;;;;5033368;28;20194;-64
2023/01/29 12:37:53;;;;;;;0.90;0.90;;;6.00;99.90;7.50;102392.00;;;;5023736;28;20210;-64
2023/01/29 12:40:20;;;;;;;7.30;2.47;;;5.80;99.90;7.80;102447.00;;;;5027212;28;20277;-64
2023/01/29 12:43:00;;;;;;;0.83;0.83;;;6.00;99.90;7.60;102441.00;;;;5026486;28;20289;-65
2023/01/29 12:45:33;;;;;;;11.70;6.67;;;6.00;99.90;8.40;102431.00;;;;5028648;28;20186;-65
2023/01/29 12:48:26;;;;;;;1.97;1.87;;;6.20;99.90;8.20;102420.00;;;;5033507;28;20275;-64
2023/01/29 12:51:06;;;;;;;0.70;0.70;;;6.10;99.90;8.20;102418.00;;;;5016485;28;20264;-64
2023/01/29 12:54:09;;;;;;;6.00;3.30;;;5.90;99.90;7.40;102401.00;;;;5032849;28;20190;-64
2023/01/29 12:56:49;;;;;;;0.90;0.90;;;5.90;99.90;8.30;102407.00;;;;5059698;28;20220;-64
2023/01/29 12:59:37;;;;;;;0.53;0.53;;;6.00;99.90;7.90;102417.00;;;;5033423;28;20201;-64
2023/01/29 13:02:43;;;;;;;0.93;0.93;;;5.90;99.90;8.60;102347.00;;;;5033105;28;20203;-64
2023/01/29 13:05:33;;;;;;;3.43;3.13;;;6.20;99.90;7.30;102407.00;;;;5029393;28;20199;-64
2023/01/29 13:08:17;;;;;;;3.67;2.47;;;5.90;99.90;7.50;102408.00;;;;5029737;28;20233;-64
2023/01/29 13:10:50;;;;;;;0.20;0.20;;;5.80;99.90;8.00;102393.00;;;;5033272;28;20187;-64
2023/01/29 13:13:52;;;;;;;0.20;0.20;;;5.80;99.90;8.90;102373.00;;;;5032275;28;20270;-64
2023/01/29 13:16:26;;;;;;;0.77;0.77;;;6.20;99.90;7.90;102396.00;;;;5028411;28;20201;-64
2023/01/29 13:19:25;;;;;;;0.77;0.77;;;6.20;99.90;8.00;102369.00;;;;5033868;28;20185;-64
2023/01/29 13:22:05;;;;;;;3.47;2.57;;;5.90;99.90;7.00;102366.00;;;;5026532;28;20543;-64
2023/01/29 13:24:41;;;;;;;5.00;2.43;;;5.70;99.90;8.10;102350.00;;;;5032556;28;20183;-64
2023/01/29 13:27:34;;;;;;;0.73;0.73;;;5.70;99.90;8.10;102365.00;;;;5033774;28;20196;-64
2023/01/29 13:30:21;;;;;;;0.73;0.50;;;5.90;99.90;8.40;102354.00;;;;5033632;28;20818;-64
2023/01/29 13:32:54;;;;;;;0.20;0.20;;;6.10;99.90;9.30;102357.00;;;;5026313;28;20795;-64
2023/01/29 13:35:24;;;;;;;1.60;0.97;;;6.60;99.90;8.80;102349.00;;;;5032628;28;20189;-64
2023/01/29 13:37:52;;;;;;;3.50;1.87;;;6.70;99.90;8.10;102362.00;;;;5030273;28;20190;-64
2023/01/29 13:40:39;;;;;;;1.13;1.00;;;6.20;99.90;7.20;102347.00;;;;5030004;28;20282;-63
2023/01/29 13:43:07;;;;;;;0.50;0.50;;;5.70;99.90;8.40;102334.00;;;;5023011;28;20188;-64
2023/01/29 13:45:44;;;;;;;0.53;0.53;;;6.00;99.90;7.80;102332.00;;;;5030244;28;20181;-64
2023/01/29 13:48:35;;;;;;;1.97;1.87;;;5.80;99.90;7.80;102337.00;;;;5031983;28;20213;-64
2023/01/29 13:51:18;;;;;;;2.37;1.67;;;5.80;99.90;8.20;102316.00;;;;5034299;28;20208;-64
2023/01/29 13:54:06;;;;;;;2.43;1.97;;;5.90;99.90;8.20;102333.00;;;;5031442;28;20634;-64
2023/01/29 13:56:32;;;;;;;0.73;0.73;;;6.10;99.90;7.90;102330.00;;;;5019547;28;20186;-64
2023/01/29 13:59:04;;;;;;;2.23;2.03;;;6.00;99.90;7.90;102334.00;;;;5033449;28;20201;-64
2023/01/29 14:01:48;;;;;;;0.20;0.20;;;5.90;99.90;9.20;102332.00;;;;5032214;28;20201;-64
2023/01/29 14:04:30;;;;;;;0.63;0.63;;;6.40;99.90;8.70;102337.00;;;;5031108;28;20183;-64
2023/01/29 14:07:05;;;;;;;0.33;0.33;;;6.40;99.90;9.50;102340.00;;;;5019412;28;20221;-64
2023/01/29 14:09:35;;;;;;;1.53;1.43;;;6.70;99.90;7.40;102349.00;;;;5015392;28;20269;-64
2023/01/29 14:12:24;;;;;;;0.57;0.57;;;6.20;99.90;8.60;102339.00;;;;5032566;28;20338;-64
2023/01/29 14:15:15;;;;;;;0.20;0.20;;;6.20;99.90;9.20;102273.00;;;;5020591;28;20701;-64
2023/01/29 14:18:12;;;;;;;5.03;4.30;;;6.30;99.90;8.10;102341.00;;;;5031523;28;20200;-64
2023/01/29 14:20:51;;;;;;;3.10;1.43;;;6.30;99.90;9.30;102269.00;;;;5020602;28;20263;-64
2023/01/29 14:23:45;;;;;;;0.50;0.50;;;6.50;99.90;9.00;102337.00;;;;5032742;28;20197;-64
2023/01/29 14:26:46;;;;;;;2.73;1.93;;;6.70;99.90;8.90;102328.00;;;;5029471;28;20183;-64
2023/01/29 14:29:22;;;;;;;3.17;2.97;;;6.50;99.90;7.40;102335.00;;;;5016872;28;20203;-64
2023/01/29 14:31:59;;;;;;;2.10;1.90;;;6.10;99.90;7.00;102312.00;;;;5015180;28;20242;-64
2023/01/29 14:35:05;;;;;;;1.60;1.60;;;5.70;99.90;7.40;102300.00;;;;5032184;28;20167;-64
2023/01/29 14:37:52;;;;;;;7.00;5.43;;;5.50;99.90;6.40;102297.00;;;;5021650;28;20645;-64
2023/01/29 14:40:25;;;;;;;1.63;1.53;;;5.30;99.90;7.00;102294.00;;;;5030647;28;20183;-64
2023/01/29 14:43:02;;;;;;;0.60;0.60;;;5.30;99.90;7.60;102243.00;;;;5032110;28;20191;-64
2023/01/29 14:45:40;;;;;;;1.20;1.20;;;5.30;99.90;6.80;102295.00;;;;5033158;28;20184;-64
2023/01/29 14:48:09;;;;;;;0.47;0.47;;;5.30;99.90;7.30;102296.00;;;;5031656;28;20189;-64
2023/01/29 14:50:41;;;;;;;0.30;0.30;;;5.40;99.90;6.60;102291.00;;;;5024059;28;20231;-64
2023/01/29 14:53:15;;;;;;;0.20;0.20;;;5.10;99.90;7.50;102296.00;;;;5031930;28;20215;-64
2023/01/29 14:55:56;;;;;;;0.30;0.30;;;5.30;99.90;7.00;102290.00;;;;5031385;28;20185;-64
2023/01/29 14:58:52;;;;;;;0.50;0.50;;;5.30;99.90;7.50;102299.00;;;;5027782;28;20656;-64
2023/01/29 15:01:37;;;;;;;2.30;2.20;;;5.30;99.90;7.20;102241.00;;;;5032116;28;20201;-64
2023/01/29 15:04:17;;;;;;;0.40;0.40;;;5.40;99.90;7.20;102272.00;;;;5022910;28;20189;-64
2023/01/29 15:06:59;;;;;;;1.17;1.07;;;5.40;99.90;7.70;102209.00;;;;5059896;28;20182;-64
2023/01/29 15:09:36;;;;;;;0.47;0.47;;;5.60;99.90;8.10;102282.00;;;;5025085;28;20197;-64
2023/01/29 15:12:31;;;;;;;0.60;0.60;;;5.70;99.90;7.90;102266.00;;;;5032372;28;20207;-64
2023/01/29 15:15:35;;;;;;;2.43;2.23;;;5.90;99.90;7.20;102250.00;;;;5030741;28;20660;-64
2023/01/29 15:18:33;;;;;;;1.23;0.53;;;5.80;99.90;7.30;102194.00;;;;5028058;28;20191;-64
2023/01/29 15:21:18;;;;;;;1.27;1.17;;;5.50;99.90;7.40;102249.00;;;;5031507;28;20253;-64
2023/01/29 15:24:04;;;;;;;4.20;2.90;;;5.60;99.90;8.00;102260.00;;;;5032223;28;20666;-64
2023/01/29 15:26:30;;;;;;;2.87;2.67;;;5.90;99.90;6.70;102180.00;;;;5046233;28;20192;-64
2023/01/29 15:29:00;;;;;;;2.63;1.27;;;5.50;99.90;7.10;102247.00;;;;5067402;28;20194;-64
2023/01/29 15:32:04;;;;;;;4.97;2.77;;;5.40;99.90;6.70;102236.00;;;;5035594;28;20569;-64
2023/01/29 15:34:30;;;;;;;2.40;2.13;;;5.30;99.90;7.00;102229.00;;;;5029271;28;20205;-64
2023/01/29 15:37:28;;;;;;;0.70;0.70;;;5.40;99.90;7.00;102234.00;;;;5033759;28;20210;-64
2023/01/29 15:39:55;;;;;;;2.10;2.00;;;5.50;99.90;6.90;102226.00;;;;5017569;28;20189;-64
2023/01/29 15:42:50;;;;;;;0.50;0.50;;;5.50;99.90;7.00;102214.00;;;;5032921;28;20674;-64
2023/01/29 15:46:25;;;;;;;0.20;0.20;;;5.40;99.90;8.00;102248.00;;;;5027122;28;20248;-64
2023/01/29 15:49:34;;;;;;;0.37;0.37;;;5.70;99.90;8.40;102191.00;;;;5029981;28;20218;-64
2023/01/29 15:52:33;;;;;;;2.83;1.80;;;5.80;99.90;7.40;102226.00;;;;5032230;28;20207;-65
2023/01/29 15:55:58;;;;;;;5.23;4.37;;;5.70;99.90;7.70;102226.00;;;;5034123;28;20210;-64
2023/01/29 15:59:11;;;;;;;1.50;0.93;;;5.60;99.90;8.60;102231.00;;;;5035141;28;20186;-64
2023/01/29 16:02:36;;;;;;;0.30;0.30;;;5.90;99.90;7.00;102223.00;;;;5018749;28;20280;-64
2023/01/29 16:05:48;;;;;;;1.80;1.70;;;5.80;99.90;6.80;102195.00;;;;5031223;28;20182;-63
2023/01/29 16:09:02;;;;;;;1.50;1.40;;;5.40;99.90;7.30;102205.00;;;;5032466;28;20303;-64
2023/01/29 16:11:52;;;;;;;4.90;1.13;;;5.40;99.90;8.00;102205.00;;;;5033890;28;20227;-64
2023/01/29 16:14:45;;;;;;;2.47;1.80;;;5.60;99.90;7.20;102213.00;;;;5033853;28;20199;-64
2023/01/29 16:17:28;;;;;;;2.00;1.85;;;5.50;99.90;6.80;102192.00;;;;5031784;28;20947;-62
2023/01/29 16:20:20;;;;;;;2.17;2.00;;;5.30;99.90;6.50;102194.00;;;;5032996;28;20173;-67
2023/01/29 16:22:54;;;;;;;0.70;0.70;;;5.30;99.90;6.80;102104.00;;;;5033821;28;20190;-64
2023/01/29 16:26:07;;;;;;;1.47;1.43;;;5.30;99.90;7.20;102197.00;;;;5033205;28;20655;-63
2023/01/29 16:28:53;;;;;;;1.80;1.43;;;5.30;99.90;6.70;102156.00;;;;5031839;28;20233;-64
2023/01/29 16:32:00;;;;;;;9.53;6.00;;;5.20;99.90;7.00;102187.00;;;;5034462;28;20228;-63
2023/01/29 16:34:36;;;;;;;6.73;3.03;;;5.20;99.90;6.60;102127.00;;;;5013341;28;20206;-64
2023/01/29 16:44:37;;;;;;;2.53;2.33;;;5.00;99.90;5.90;102166.00;;;;5031097;28;20576;-64
2023/01/29 16:47:42;;;;;;;2.93;2.60;;;4.80;99.90;6.10;102105.00;;;;5027494;28;20195;-63
2023/01/29 16:54:58;;;;;;;3.57;3.27;;;4.80;99.90;5.90;102143.00;;;;5026222;28;20288;-63
2023/01/29 16:58:10;;;;;;;2.23;1.90;;;4.60;99.90;6.00;102147.00;;;;5031143;28;20187;-63
2023/01/29 17:01:08;;;;;;;6.97;5.00;;;4.70;99.90;6.40;102139.00;;;;5014844;28;20189;-63
2023/01/29 17:03:35;;;;;;;3.73;3.40;;;4.80;99.90;6.00;102139.00;;;;5025402;28;20270;-63
2023/01/29 17:06:33;;;;;;;2.10;1.47;;;4.70;99.90;5.60;102083.00;;;;5034240;28;20242;-63
2023/01/29 17:09:30;;;;;;;5.30;3.43;;;4.60;99.90;5.60;102131.00;;;;5012777;28;20205;-63
2023/01/29 17:12:27;;;;;;;4.47;1.03;;;4.60;99.90;6.30;102142.00;;;;5031056;28;20227;-63
2023/01/29 17:15:45;;;;;;;1.17;1.03;;;4.60;99.90;6.30;102153.00;;;;5032417;28;20198;-63
2023/01/29 17:18:32;;;;;;;3.93;3.67;;;4.70;99.90;6.10;102136.00;;;;5013871;28;20215;-63
2023/01/29 17:21:38;;;;;;;11.73;4.40;;;4.70;99.90;6.30;102134.00;;;;5026935;28;20191;-63
2023/01/29 17:25:04;;;;;;;4.73;2.90;;;4.70;99.90;5.60;102121.00;;;;5012272;28;20277;-63
2023/01/29 17:28:01;;;;;;;3.13;2.77;;;4.60;99.90;6.60;102131.00;;;;5028166;28;20642;-64
2023/01/29 17:30:47;;;;;;;1.07;0.97;;;4.70;99.90;6.30;102129.00;;;;5024221;28;20197;-64
2023/01/29 17:33:24;;;;;;;5.10;3.40;;;4.80;99.90;6.10;102122.00;;;;5032015;28;20223;-64
2023/01/29 17:36:13;;;;;;;2.17;2.07;;;4.70;99.90;6.20;102125.00;;;;5032227;28;20189;-64
2023/01/29 17:39:18;;;;;;;7.30;6.67;;;4.70;99.90;5.90;102109.00;;;;5022802;28;20656;-64
2023/01/29 17:42:13;;;;;;;10.13;5.90;;;4.60;99.90;5.90;102110.00;;;;5025407;28;20199;-64
2023/01/29 17:45:00;;;;;;;0.83;0.63;;;4.60;99.90;6.30;102130.00;;;;5011340;28;20684;-64
2023/01/29 17:47:49;;;;;;;0.47;0.47;;;4.70;99.90;5.90;102106.00;;;;5033014;28;20188;-64
2023/01/29 17:50:32;;;;;;;3.27;2.97;;;4.70;99.90;6.40;102097.00;;;;5032629;28;20185;-64
2023/01/29 17:53:16;;;;;;;1.13;0.93;;;4.80;99.90;6.00;102104.00;;;;5031392;28;20797;-64
2023/01/29 17:56:04;;;;;;;0.90;0.90;;;4.60;99.90;6.30;102117.00;;;;5031797;28;20713;-64
2023/01/29 17:59:16;;;;;;;0.50;0.50;;;4.70;99.90;7.20;102117.00;;;;5017823;28;20279;-64
2023/01/29 18:01:51;;;;;;;1.30;1.27;;;5.00;99.90;6.40;102068.00;;;;5016246;28;20554;-64
2023/01/29 18:04:38;;;;;;;0.20;0.20;;;5.00;99.90;7.60;102121.00;;;;5032081;28;20196;-66
2023/01/29 18:07:08;;;;;;;1.20;1.10;;;5.20;99.90;7.30;102116.00;;;;5031193;28;20197;-65
2023/01/29 18:10:15;;;;;;;0.63;0.63;;;5.30;99.90;7.00;102127.00;;;;5030763;28;20635;-65
2023/01/29 18:13:21;;;;;;;7.67;4.90;;;5.30;99.90;6.50;102107.00;;;;5023730;28;20210;-65
2023/01/29 18:16:17;;;;;;;1.43;1.33;;;5.30;99.90;6.90;102114.00;;;;5028397;28;20198;-65
2023/01/29 18:19:29;;;;;;;3.20;2.50;;;5.10;99.90;5.90;102101.00;;;;5018304;28;20291;-65
2023/01/29 18:25:02;;;;;;;1.87;1.77;;;4.90;99.90;6.70;102114.00;;;;5016555;28;20200;-66
2023/01/29 18:28:13;;;;;;;2.43;1.80;;;5.10;99.90;6.50;102090.00;;;;5048568;28;20193;-65
2023/01/29 18:31:14;;;;;;;4.37;3.27;;;5.00;99.90;6.20;102056.00;;;;5027251;28;20207;-65
2023/01/29 18:34:10;;;;;;;7.20;4.57;;;4.80;99.90;6.10;102000.00;;;;5005864;28;20222;-65
2023/01/29 18:37:21;;;;;;;5.70;2.00;;;4.80;99.90;5.80;102048.00;;;;5022918;28;20313;-65
2023/01/29 18:40:24;;;;;;;3.27;2.87;;;4.70;99.90;6.10;102040.00;;;;5026238;28;20192;-65
2023/01/29 18:42:48;;;;;;;5.83;2.77;;;4.70;99.90;6.40;102055.00;;;;5023651;28;20207;-65
2023/01/29 18:45:37;;;;;;;4.33;2.03;;;4.80;99.90;6.60;102057.00;;;;5031418;28;20188;-65
2023/01/29 18:48:32;;;;;;;0.97;0.97;;;4.80;99.90;6.90;102053.00;;;;5028916;28;20187;-65
2023/01/29 18:51:35;;;;;;;3.00;2.43;;;5.00;99.90;6.20;102030.00;;;;5032671;28;20603;-65
2023/01/29 18:54:04;;;;;;;3.73;2.80;;;4.80;99.90;7.20;102053.00;;;;5032246;28;20186;-66
2023/01/29 18:56:35;;;;;;;1.17;1.17;;;5.00;99.90;6.60;102024.00;;;;5032463;28;20187;-65
2023/01/29 18:59:20;;;;;;;3.03;2.20;;;4.90;99.90;6.50;102024.00;;;;5036615;28;20240;-65
2023/01/29 19:02:13;;;;;;;3.50;2.50;;;4.90;99.90;6.40;102038.00;;;;5035252;28;20214;-65
2023/01/29 19:05:15;;;;;;;2.37;2.10;;;5.00;99.90;6.20;102013.00;;;;5033510;28;20221;-65
2023/01/29 19:08:04;;;;;;;7.23;4.03;;;4.90;99.90;6.00;101994.00;;;;5039894;28;20256;-65
2023/01/29 19:10:33;;;;;;;5.87;4.20;;;4.80;99.90;5.70;101997.00;;;;5034746;28;20199;-65
2023/01/29 19:13:05;;;;;;;1.47;1.47;;;4.70;99.90;6.50;102002.00;;;;5035341;28;20208;-65
2023/01/29 19:15:43;;;;;;;5.77;2.53;;;4.80;99.90;6.20;101977.00;;;;5035292;28;20191;-65
2023/01/29 19:18:20;;;;;;;2.50;2.30;;;4.90;99.90;6.10;101969.00;;;;5029848;28;20188;-65
2023/01/29 19:20:52;;;;;;;1.07;1.07;;;4.80;99.90;6.40;101987.00;;;;5033785;28;20207;-65
2023/01/29 19:23:44;;;;;;;0.87;0.87;;;4.90;99.90;6.00;101975.00;;;;5034242;28;20704;-65
2023/01/29 19:26:16;;;;;;;4.30;1.70;;;4.80;99.90;6.50;101966.00;;;;5025096;28;20192;-65
2023/01/29 19:28:53;;;;;;;2.53;2.33;;;4.80;99.90;6.60;101950.00;;;;5034901;28;20751;-65
2023/01/29 19:31:25;;;;;;;5.30;4.80;;;4.90;99.90;5.90;101947.00;;;;5034591;28;20218;-65
2023/01/29 19:34:11;;;;;;;0.70;0.70;;;4.80;99.90;6.50;101956.00;;;;5034888;28;20198;-65
2023/01/29 19:36:43;;;;;;;1.70;1.60;;;4.90;99.90;6.50;101947.00;;;;5034111;28;20345;-65
2023/01/29 19:39:18;;;;;;;1.37;1.17;;;4.90;99.90;6.50;101938.00;;;;5033646;28;20646;-65
2023/01/29 19:41:54;;;;;;;1.63;1.53;;;5.00;99.90;6.60;101924.00;;;;5035892;28;20215;-64
2023/01/29 19:44:43;;;;;;;4.03;3.40;;;5.10;99.90;6.20;101914.00;;;;5034578;28;20196;-64
2023/01/29 19:47:20;;;;;;;3.63;2.97;;;5.00;99.90;5.90;101896.00;;;;5033430;28;20556;-64
2023/01/29 19:49:53;;;;;;;5.20;2.57;;;4.90;99.90;6.30;101889.00;;;;5034978;28;20237;-64
2023/01/29 19:52:34;;;;;;;15.53;4.60;;;4.90;99.90;6.10;101873.00;;;;5034949;28;20202;-65
2023/01/29 19:55:06;;;;;;;2.03;1.93;;;4.90;99.90;6.50;101892.00;;;;5034653;28;20267;-64
2023/01/29 19:57:40;;;;;;;1.27;1.17;;;5.00;99.90;6.40;101891.00;;;;5034041;28;20195;-64
2023/01/29 20:00:17;;;;;;;4.27;4.03;;;5.00;99.90;6.80;101896.00;;;;5034069;28;20540;-64
2023/01/29 20:02:47;;;;;;;1.50;1.40;;;5.10;99.90;7.30;101857.00;;;;5035149;28;20226;-65
2023/01/29 20:05:22;;;;;;;1.03;1.03;;;5.20;99.90;7.10;101888.00;;;;5049171;28;20186;-64
2023/01/29 20:08:03;;;;;;;8.70;5.10;;;5.30;99.90;6.70;101870.00;;;;5034129;28;20215;-64
2023/01/29 20:10:37;;;;;;;3.87;3.50;;;5.20;99.90;6.50;101889.00;;;;5035061;28;20551;-65
2023/01/29 20:13:29;;;;;;;1.03;1.00;;;5.20;99.90;7.30;101903.00;;;;5034457;28;20207;-65
2023/01/29 20:16:04;;;;;;;2.73;2.60;;;5.40;99.90;7.30;101899.00;;;;5017971;28;20773;-64
2023/01/29 20:18:35;;;;;;;1.13;1.03;;;5.40;99.90;7.20;101907.00;;;;5035354;28;20545;-64
2023/01/29 20:21:14;;;;;;;3.17;2.73;;;5.60;99.90;7.50;101913.00;;;;5034898;28;20648;-64
2023/01/29 20:23:49;;;;;;;0.30;0.30;;;5.60;99.90;6.80;101907.00;;;;5024851;28;20299;-65